Time;durP1;ratioP1;P1;durP2;ratioP2;P2;SDS_P1;SDS_P2;PMS_P1;PMS_P2;Temp;Humidity;BMP_temperature;BMP_pressure;BME280_temperature;BME280_humidity;BME280_pressure;Samples;Min_cycle;Max_cycle;Signal;HPM_P1;HPM_P2
2022/12/30 07:44:47;;;;;;;3.53;1.30;;;7.50;99.90;;;;;;5308430;23;20070;-81
2022/12/30 07:47:14;;;;;;;4.55;1.50;;;7.50;99.90;;;;;;4900487;29;20063;-80
2022/12/30 07:49:41;;;;;;;3.70;1.85;;;7.60;99.90;;;;;;4893768;29;20063;-78
2022/12/30 07:52:07;;;;;;;2.65;1.52;;;7.60;99.90;;;;;;4896272;29;20079;-81
2022/12/30 07:54:34;;;;;;;3.08;1.67;;;7.50;99.90;;;;;;4884201;29;20053;-81
2022/12/30 07:57:01;;;;;;;2.85;1.25;;;7.60;99.90;;;;;;4892332;29;20064;-81
2022/12/30 07:59:27;;;;;;;2.28;1.20;;;7.60;99.90;;;;;;4883013;29;20060;-81
2022/12/30 08:01:54;;;;;;;3.03;0.88;;;7.60;99.90;;;;;;4879408;29;20059;-80
2022/12/30 08:04:21;;;;;;;2.00;0.98;;;7.60;99.90;;;;;;4892024;29;20484;-81
2022/12/30 08:07:08;;;;;;;0.63;0.45;;;7.60;99.90;;;;;;4881474;29;20422;-81
2022/12/30 08:09:36;;;;;;;0.50;0.50;;;7.60;99.90;;;;;;4877791;29;20061;-81
2022/12/30 08:12:03;;;;;;;0.40;0.40;;;7.60;99.90;;;;;;4881583;29;20053;-81
2022/12/30 08:14:30;;;;;;;0.38;0.38;;;7.70;99.90;;;;;;4881762;29;20143;-81
2022/12/30 08:16:57;;;;;;;0.40;0.40;;;7.80;99.90;;;;;;4881897;29;20080;-81
2022/12/30 08:19:23;;;;;;;0.52;0.50;;;7.90;99.90;;;;;;4889357;29;20049;-83
2022/12/30 08:21:50;;;;;;;0.75;0.65;;;8.00;99.90;;;;;;4885738;29;20204;-82
2022/12/30 08:24:17;;;;;;;0.90;0.70;;;8.10;99.90;;;;;;4883611;29;20057;-80
2022/12/30 08:26:43;;;;;;;1.27;1.02;;;8.20;99.90;;;;;;4884666;29;20140;-82
2022/12/30 08:29:10;;;;;;;1.48;1.13;;;8.20;99.90;;;;;;4885033;29;20113;-79
2022/12/30 08:31:37;;;;;;;2.05;0.90;;;8.30;99.90;;;;;;4882944;29;20053;-81
2022/12/30 08:34:04;;;;;;;0.95;0.88;;;8.30;99.90;;;;;;4885534;29;20119;-81
2022/12/30 08:36:30;;;;;;;3.10;1.48;;;8.40;99.90;;;;;;4883964;29;20045;-81
2022/12/30 08:39:00;;;;;;;2.90;1.40;;;8.40;99.90;;;;;;4882801;29;20466;-81
2022/12/30 08:41:37;;;;;;;3.33;1.80;;;8.40;99.90;;;;;;4882760;29;20052;-79
2022/12/30 08:44:04;;;;;;;1.88;1.30;;;8.50;99.90;;;;;;4879720;29;20056;-82
2022/12/30 08:46:33;;;;;;;4.30;1.40;;;8.50;99.90;;;;;;4885330;29;20053;-82
2022/12/30 08:49:00;;;;;;;2.00;1.15;;;8.60;99.90;;;;;;4884500;29;20081;-81
2022/12/30 08:51:28;;;;;;;2.35;1.08;;;8.60;99.90;;;;;;4897971;29;20052;-82
2022/12/30 08:53:54;;;;;;;1.42;0.75;;;8.70;99.90;;;;;;4883820;29;20053;-80
2022/12/30 08:56:24;;;;;;;0.50;0.50;;;8.70;99.90;;;;;;4883684;29;20057;-81
2022/12/30 08:58:51;;;;;;;0.90;0.70;;;8.80;99.90;;;;;;4884586;29;20071;-81
2022/12/30 09:01:41;;;;;;;0.38;0.38;;;8.80;99.90;;;;;;4880952;29;20053;-81
2022/12/30 09:04:09;;;;;;;1.35;0.68;;;8.90;99.90;;;;;;4878488;29;20140;-81
2022/12/30 09:06:39;;;;;;;0.40;0.40;;;9.00;99.90;;;;;;4883157;29;20053;-81
2022/12/30 09:09:07;;;;;;;0.35;0.35;;;9.10;99.90;;;;;;4885620;29;20088;-82
2022/12/30 09:11:36;;;;;;;0.20;0.20;;;9.20;99.90;;;;;;4884425;29;20057;-80
2022/12/30 09:14:05;;;;;;;0.30;0.30;;;9.20;99.90;;;;;;4889519;29;20403;-81
2022/12/30 09:16:32;;;;;;;0.57;0.22;;;9.30;99.90;;;;;;4883774;29;20510;-83
2022/12/30 09:18:59;;;;;;;0.30;0.30;;;9.40;99.90;;;;;;4890359;29;20041;-82
2022/12/30 09:21:26;;;;;;;1.80;0.30;;;9.40;99.90;;;;;;4882908;29;20057;-82
2022/12/30 09:23:54;;;;;;;3.20;0.57;;;9.50;99.90;;;;;;4882740;29;20100;-82
2022/12/30 09:26:23;;;;;;;1.55;0.25;;;9.50;99.90;;;;;;4880474;29;20053;-82
2022/12/30 09:28:50;;;;;;;0.33;0.20;;;9.70;99.90;;;;;;4884496;29;20048;-82
2022/12/30 09:31:17;;;;;;;3.55;2.08;;;9.70;99.90;;;;;;4897570;29;20061;-82
2022/12/30 09:33:44;;;;;;;2.10;1.00;;;9.80;99.90;;;;;;4882230;29;20059;-81
2022/12/30 09:36:12;;;;;;;0.30;0.30;;;9.90;99.90;;;;;;4881732;29;20053;-83
2022/12/30 09:38:38;;;;;;;0.52;0.38;;;10.00;99.90;;;;;;4895767;29;20128;-83
2022/12/30 09:41:13;;;;;;;1.05;0.40;;;10.10;99.90;;;;;;4882027;29;20139;-82
2022/12/30 09:43:58;;;;;;;0.25;0.25;;;10.20;99.90;;;;;;4889728;29;20064;-80
2022/12/30 09:46:36;;;;;;;0.20;0.20;;;10.20;99.90;;;;;;4879561;29;20059;-82
2022/12/30 09:49:28;;;;;;;0.60;0.50;;;10.30;99.90;;;;;;4883201;29;20541;-83
2022/12/30 09:52:05;;;;;;;0.28;0.28;;;10.30;99.90;;;;;;4894449;29;20045;-82
2022/12/30 09:54:36;;;;;;;1.63;0.45;;;10.40;99.90;;;;;;4896781;29;20060;-81
2022/12/30 10:00:12;;;;;;;2.85;0.38;;;10.60;99.90;;;;;;4882842;29;20104;-82
2022/12/30 10:02:53;;;;;;;1.10;0.77;;;10.60;99.90;;;;;;4881742;29;20541;-81
2022/12/30 10:05:36;;;;;;;0.40;0.40;;;10.70;99.90;;;;;;4896853;29;20763;-81
2022/12/30 10:08:10;;;;;;;1.52;0.50;;;10.80;99.90;;;;;;4885728;29;20053;-82
2022/12/30 10:10:52;;;;;;;1.48;0.60;;;10.80;99.90;;;;;;4882555;29;20088;-79
2022/12/30 10:13:34;;;;;;;0.90;0.50;;;10.80;99.90;;;;;;4878380;29;20511;-82
2022/12/30 10:16:15;;;;;;;1.75;0.70;;;10.90;99.90;;;;;;4876633;29;20093;-78
2022/12/30 10:19:04;;;;;;;0.68;0.50;;;10.90;99.90;;;;;;4879972;29;20388;-82
2022/12/30 10:21:43;;;;;;;1.33;0.50;;;10.90;99.90;;;;;;4879408;29;20053;-81
2022/12/30 10:24:34;;;;;;;0.80;0.40;;;11.00;99.90;;;;;;4880579;29;20306;-80
2022/12/30 10:27:13;;;;;;;1.05;0.60;;;11.00;99.90;;;;;;4879455;29;20130;-82
2022/12/30 10:29:43;;;;;;;1.02;0.55;;;11.10;99.90;;;;;;4879413;29;20052;-82
2022/12/30 10:32:17;;;;;;;0.63;0.60;;;11.10;99.90;;;;;;4878474;29;20049;-82
2022/12/30 10:34:46;;;;;;;0.63;0.50;;;11.10;99.90;;;;;;4880897;29;20463;-80
2022/12/30 10:37:29;;;;;;;0.50;0.50;;;11.20;99.90;;;;;;4880803;29;20041;-81
2022/12/30 10:39:56;;;;;;;0.80;0.65;;;11.20;99.90;;;;;;4878425;29;20080;-81
2022/12/30 10:42:46;;;;;;;0.80;0.63;;;11.20;99.90;;;;;;4880463;29;20056;-82
2022/12/30 10:45:18;;;;;;;1.02;0.40;;;11.20;99.90;;;;;;4892312;29;20055;-80
2022/12/30 10:48:13;;;;;;;0.30;0.30;;;11.20;99.90;;;;;;4881199;29;20053;-82
2022/12/30 10:50:43;;;;;;;2.30;0.30;;;11.30;99.90;;;;;;4879919;29;20076;-81
2022/12/30 10:53:21;;;;;;;0.55;0.22;;;11.30;99.90;;;;;;4877359;29;20053;-82
2022/12/30 10:55:55;;;;;;;0.52;0.30;;;11.40;99.90;;;;;;4878273;29;20048;-80
2022/12/30 10:58:33;;;;;;;2.78;0.55;;;11.40;99.90;;;;;;4881222;29;20075;-78
2022/12/30 11:01:01;;;;;;;0.32;0.30;;;11.40;99.90;;;;;;4885082;29;20076;-78
2022/12/30 11:03:30;;;;;;;2.60;0.40;;;11.40;99.90;;;;;;4881507;29;20045;-82
2022/12/30 11:06:14;;;;;;;0.85;0.57;;;11.40;99.90;;;;;;4880952;29;20081;-82
2022/12/30 11:08:41;;;;;;;1.25;0.50;;;11.50;99.90;;;;;;4880731;29;21065;-82
2022/12/30 11:11:09;;;;;;;0.30;0.30;;;11.50;99.90;;;;;;4879728;29;20057;-80
2022/12/30 11:16:32;;;;;;;3.75;0.95;;;11.50;99.90;;;;;;4876516;29;20506;-83
2022/12/30 11:19:03;;;;;;;0.75;0.50;;;11.50;99.90;;;;;;4878172;29;20511;-83
2022/12/30 11:21:38;;;;;;;1.20;0.73;;;11.60;99.90;;;;;;4877923;29;20207;-82
2022/12/30 11:24:05;;;;;;;2.55;0.80;;;11.60;99.90;;;;;;4879817;29;20077;-83
2022/12/30 11:26:33;;;;;;;1.27;1.17;;;11.60;99.90;;;;;;4880934;29;20518;-83
2022/12/30 11:29:09;;;;;;;1.23;0.50;;;11.60;99.90;;;;;;4880899;29;20128;-83
2022/12/30 11:31:42;;;;;;;1.88;0.40;;;11.70;99.90;;;;;;4892680;29;20419;-83
2022/12/30 11:34:26;;;;;;;1.92;0.45;;;11.70;99.90;;;;;;4875447;29;20188;-82
2022/12/30 11:36:53;;;;;;;0.40;0.40;;;11.70;99.90;;;;;;4877244;29;20073;-83
2022/12/30 11:39:22;;;;;;;1.05;0.40;;;11.80;99.90;;;;;;4880786;29;20056;-81
2022/12/30 11:41:54;;;;;;;1.10;0.80;;;11.80;99.90;;;;;;4880591;29;20045;-83
2022/12/30 11:44:23;;;;;;;0.57;0.57;;;11.90;99.90;;;;;;4880500;29;20140;-82
2022/12/30 11:46:54;;;;;;;2.25;0.82;;;11.90;99.90;;;;;;4879763;29;20067;-82
2022/12/30 11:49:35;;;;;;;0.57;0.40;;;12.00;99.90;;;;;;4880714;29;20081;-83
2022/12/30 11:52:12;;;;;;;1.75;0.60;;;12.00;99.90;;;;;;4881604;29;20057;-83
2022/12/30 11:54:46;;;;;;;0.80;0.50;;;12.00;99.90;;;;;;4884061;29;20136;-83
2022/12/30 11:57:32;;;;;;;3.40;0.93;;;12.00;99.90;;;;;;4885755;29;20056;-82
2022/12/30 12:00:17;;;;;;;0.50;0.50;;;12.10;99.90;;;;;;4885025;29;20049;-83
2022/12/30 12:02:47;;;;;;;1.42;0.50;;;12.00;99.90;;;;;;4882713;29;20324;-83
2022/12/30 12:05:39;;;;;;;2.28;1.05;;;12.10;99.90;;;;;;4884476;29;20132;-82
2022/12/30 12:08:18;;;;;;;0.73;0.63;;;12.10;99.90;;;;;;4880165;29;20082;-83
2022/12/30 12:10:57;;;;;;;1.13;0.60;;;12.10;99.90;;;;;;4883964;29;20065;-83
2022/12/30 12:13:29;;;;;;;0.52;0.52;;;12.10;99.90;;;;;;4884748;29;20499;-85
2022/12/30 12:15:58;;;;;;;1.20;0.70;;;12.20;99.90;;;;;;4898138;29;20060;-83
2022/12/30 12:18:52;;;;;;;0.50;0.50;;;12.20;99.90;;;;;;4899974;29;20064;-82
2022/12/30 12:21:27;;;;;;;0.63;0.47;;;12.20;99.90;;;;;;4886313;29;20140;-84
2022/12/30 12:24:13;;;;;;;1.67;0.82;;;12.20;99.90;;;;;;4884964;29;20113;-83
2022/12/30 12:26:54;;;;;;;1.70;0.57;;;12.20;99.90;;;;;;4886653;29;20068;-84
2022/12/30 12:29:22;;;;;;;3.13;0.95;;;12.20;99.90;;;;;;4885222;29;20056;-83
2022/12/30 12:32:01;;;;;;;0.47;0.43;;;12.30;99.90;;;;;;4886750;29;20056;-82
2022/12/30 12:34:58;;;;;;;1.38;0.50;;;12.30;99.90;;;;;;4888766;29;20052;-82
2022/12/30 12:37:27;;;;;;;0.55;0.47;;;12.30;99.90;;;;;;4892529;29;20064;-82
2022/12/30 12:40:19;;;;;;;0.70;0.57;;;12.30;99.90;;;;;;4890718;29;20136;-82
2022/12/30 12:43:17;;;;;;;0.98;0.70;;;12.30;99.90;;;;;;4888878;29;20064;-83
2022/12/30 12:46:18;;;;;;;0.45;0.45;;;12.30;99.90;;;;;;4885041;29;20069;-83
2022/12/30 12:49:16;;;;;;;0.60;0.52;;;12.30;99.90;;;;;;4890432;29;20064;-83
2022/12/30 12:52:17;;;;;;;0.40;0.40;;;12.30;99.90;;;;;;4891405;29;20061;-83
2022/12/30 12:55:13;;;;;;;0.40;0.40;;;12.30;99.90;;;;;;4883778;29;20410;-83
2022/12/30 12:58:10;;;;;;;0.40;0.38;;;12.30;99.90;;;;;;4883570;29;20080;-83
2022/12/30 13:00:56;;;;;;;0.75;0.50;;;12.30;99.90;;;;;;4882542;29;20049;-84
2022/12/30 13:03:38;;;;;;;0.50;0.50;;;12.30;99.90;;;;;;4882805;29;20053;-82
2022/12/30 13:06:27;;;;;;;0.60;0.60;;;12.30;99.90;;;;;;4882537;29;20082;-83
2022/12/30 13:09:05;;;;;;;1.02;0.60;;;12.30;99.90;;;;;;4883228;29;20055;-82
2022/12/30 13:11:31;;;;;;;1.15;0.60;;;12.30;99.90;;;;;;4884553;29;20105;-83
2022/12/30 13:14:35;;;;;;;1.85;0.85;;;12.30;99.90;;;;;;4884483;29;20064;-83
2022/12/30 13:17:09;;;;;;;1.17;0.40;;;12.30;99.90;;;;;;4882771;29;20525;-82
2022/12/30 13:19:37;;;;;;;0.73;0.63;;;12.30;99.90;;;;;;4885428;29;20049;-82
2022/12/30 13:22:09;;;;;;;0.52;0.50;;;12.30;99.90;;;;;;4884908;29;20049;-83
2022/12/30 13:24:44;;;;;;;2.15;0.50;;;12.30;99.90;;;;;;4881977;29;20053;-84
2022/12/30 13:27:30;;;;;;;0.85;0.65;;;12.30;99.90;;;;;;4881006;29;20060;-81
2022/12/30 13:29:58;;;;;;;0.68;0.50;;;12.30;99.90;;;;;;4881998;29;20072;-84
2022/12/30 13:32:36;;;;;;;0.70;0.40;;;12.30;99.90;;;;;;4887020;29;20094;-82
2022/12/30 13:35:15;;;;;;;0.80;0.60;;;12.30;99.90;;;;;;4883009;29;20148;-84
2022/12/30 13:38:24;;;;;;;1.45;0.60;;;12.30;99.90;;;;;;4883784;29;20071;-83
2022/12/30 13:41:20;;;;;;;0.50;0.50;;;12.30;99.90;;;;;;4884518;29;20116;-82
2022/12/30 13:43:56;;;;;;;0.75;0.50;;;12.30;99.90;;;;;;4884672;29;20085;-83
2022/12/30 13:46:26;;;;;;;0.88;0.63;;;12.30;99.90;;;;;;4885174;29;20137;-83
2022/12/30 13:49:33;;;;;;;0.50;0.40;;;12.30;99.90;;;;;;4894405;29;20056;-82
2022/12/30 13:52:05;;;;;;;0.50;0.40;;;12.30;99.90;;;;;;4853170;29;20055;-83
2022/12/30 13:54:33;;;;;;;0.88;0.60;;;12.30;99.90;;;;;;4881770;29;20048;-83
2022/12/30 13:57:03;;;;;;;0.40;0.40;;;12.20;99.90;;;;;;4882518;29;20056;-82
2022/12/30 13:59:36;;;;;;;1.10;0.45;;;12.20;99.90;;;;;;4882345;29;20055;-82
2022/12/30 14:02:18;;;;;;;1.70;0.50;;;12.30;99.90;;;;;;4881980;29;20135;-82
2022/12/30 14:04:45;;;;;;;0.70;0.40;;;12.20;99.90;;;;;;4882565;29;20415;-82
2022/12/30 14:07:38;;;;;;;0.73;0.40;;;12.20;99.90;;;;;;4882596;29;20059;-81
2022/12/30 14:10:17;;;;;;;1.63;0.60;;;12.20;99.90;;;;;;4880046;29;20412;-83
2022/12/30 14:13:04;;;;;;;1.70;0.53;;;12.20;99.90;;;;;;4883880;29;20111;-82
2022/12/30 14:15:37;;;;;;;0.77;0.50;;;12.20;99.90;;;;;;4881902;29;20061;-84
2022/12/30 14:18:17;;;;;;;0.80;0.60;;;12.20;99.90;;;;;;4880866;29;20141;-82
2022/12/30 14:21:10;;;;;;;0.95;0.70;;;12.20;99.90;;;;;;4884177;29;20045;-83
2022/12/30 14:23:54;;;;;;;0.98;0.52;;;12.10;99.90;;;;;;4896066;29;20430;-83
2022/12/30 14:26:43;;;;;;;1.55;0.60;;;12.20;99.90;;;;;;4880720;29;20590;-83
2022/12/30 14:29:40;;;;;;;0.50;0.50;;;12.10;99.90;;;;;;4898604;29;20059;-83
2022/12/30 14:32:26;;;;;;;1.30;0.50;;;12.10;99.90;;;;;;4880703;29;20056;-83
2022/12/30 14:35:21;;;;;;;0.50;0.50;;;12.00;99.90;;;;;;4890342;29;20060;-84
2022/12/30 14:38:21;;;;;;;;;;;12.10;99.90;;;;;;4878286;29;20049;-84
2022/12/30 14:41:09;;;;;;;1.00;0.50;;;12.10;99.90;;;;;;4885795;29;19941;-82
2022/12/30 14:44:08;;;;;;;1.70;0.60;;;12.10;99.90;;;;;;4896788;29;20052;-83
2022/12/30 14:46:46;;;;;;;0.57;0.40;;;12.10;99.90;;;;;;4897278;29;20080;-83
2022/12/30 14:49:20;;;;;;;0.40;0.40;;;12.10;99.90;;;;;;4897524;29;20057;-84
2022/12/30 14:52:12;;;;;;;1.17;0.50;;;12.10;99.90;;;;;;4880913;29;20089;-83
2022/12/30 14:55:05;;;;;;;0.50;0.50;;;12.10;99.90;;;;;;4894738;29;20067;-83
2022/12/30 14:58:04;;;;;;;0.82;0.70;;;12.50;99.90;;;;;;4879185;29;20072;-82
2022/12/30 15:00:43;;;;;;;1.85;0.90;;;12.50;99.90;;;;;;4881234;29;20122;-83
2022/12/30 15:03:25;;;;;;;2.00;1.13;;;12.10;99.90;;;;;;4895168;29;20081;-83
2022/12/30 15:06:07;;;;;;;1.25;0.85;;;12.00;99.90;;;;;;4878719;29;20063;-84
2022/12/30 15:08:51;;;;;;;1.13;0.60;;;12.00;99.90;;;;;;4886814;29;20144;-83
2022/12/30 15:11:24;;;;;;;1.20;0.38;;;12.00;99.90;;;;;;4875177;29;20061;-83
2022/12/30 15:14:21;;;;;;;0.65;0.57;;;11.90;99.90;;;;;;4886172;29;20121;-82
2022/12/30 15:17:26;;;;;;;0.88;0.70;;;11.90;99.90;;;;;;4878971;29;20056;-83
2022/12/30 15:20:27;;;;;;;1.10;0.70;;;11.90;99.90;;;;;;4888885;29;20475;-82
2022/12/30 15:23:15;;;;;;;2.33;0.70;;;12.80;99.90;;;;;;4872408;29;20053;-83
2022/12/30 15:26:04;;;;;;;0.93;0.60;;;11.90;99.90;;;;;;4891721;29;20069;-82
2022/12/30 15:28:32;;;;;;;2.67;0.73;;;11.90;99.90;;;;;;4892767;29;20470;-81
2022/12/30 15:31:23;;;;;;;0.50;0.50;;;12.50;99.90;;;;;;4877250;29;20085;-83
2022/12/30 15:34:19;;;;;;;1.17;0.60;;;12.00;99.90;;;;;;4879294;29;20178;-83
2022/12/30 15:36:49;;;;;;;0.90;0.57;;;12.10;99.90;;;;;;4878748;29;20049;-81
2022/12/30 15:39:25;;;;;;;0.57;0.50;;;12.10;99.90;;;;;;4893228;29;20132;-83
2022/12/30 15:41:59;;;;;;;1.02;0.50;;;12.20;99.90;;;;;;4894452;29;20155;-83
2022/12/30 15:44:27;;;;;;;0.50;0.50;;;12.50;99.90;;;;;;4887090;29;20073;-83
2022/12/30 15:47:03;;;;;;;0.98;0.73;;;12.30;99.90;;;;;;4892194;29;20056;-82
2022/12/30 15:49:52;;;;;;;0.45;0.45;;;12.30;99.90;;;;;;4889644;29;20140;-82
2022/12/30 15:52:23;;;;;;;0.65;0.57;;;12.40;99.90;;;;;;4873200;29;20065;-81
2022/12/30 15:55:00;;;;;;;0.68;0.45;;;13.10;99.90;;;;;;4873683;29;20061;-82
2022/12/30 15:57:36;;;;;;;0.65;0.65;;;12.40;99.90;;;;;;4887029;29;20053;-82
2022/12/30 16:00:30;;;;;;;1.55;0.60;;;12.50;99.90;;;;;;4877698;29;20068;-83
2022/12/30 16:03:00;;;;;;;1.75;0.73;;;12.80;99.90;;;;;;4875571;29;20064;-81
2022/12/30 16:05:34;;;;;;;0.93;0.60;;;12.60;99.90;;;;;;4876934;29;20076;-81
2022/12/30 16:08:19;;;;;;;1.25;0.70;;;12.60;99.90;;;;;;4878745;29;20057;-82
2022/12/30 16:11:04;;;;;;;0.70;0.60;;;12.60;99.90;;;;;;4875290;29;20506;-81
2022/12/30 16:13:36;;;;;;;1.40;0.63;;;12.60;99.90;;;;;;4873680;29;20063;-83
2022/12/30 16:16:18;;;;;;;7.80;4.20;;;12.70;99.90;;;;;;4877512;29;20084;-82
2022/12/30 16:19:11;;;;;;;0.68;0.68;;;12.70;99.90;;;;;;4877278;29;20132;-83
2022/12/30 16:21:46;;;;;;;1.00;0.80;;;12.70;99.90;;;;;;4878989;29;20954;-82
2022/12/30 16:24:22;;;;;;;1.73;0.60;;;12.70;99.90;;;;;;4876775;29;20443;-83
2022/12/30 16:26:52;;;;;;;0.57;0.50;;;12.80;99.90;;;;;;4881170;29;20091;-83
2022/12/30 16:29:26;;;;;;;1.15;0.55;;;12.90;99.90;;;;;;4881098;29;20053;-82
2022/12/30 16:31:53;;;;;;;1.40;0.95;;;12.90;99.90;;;;;;4876847;29;20112;-83
2022/12/30 16:34:21;;;;;;;1.17;0.80;;;12.90;99.90;;;;;;4881209;29;20052;-83
2022/12/30 16:36:49;;;;;;;1.60;0.60;;;12.90;99.90;;;;;;4895932;29;20437;-83
2022/12/30 16:39:18;;;;;;;0.50;0.50;;;12.90;99.90;;;;;;4897649;29;20089;-83
2022/12/30 16:41:45;;;;;;;0.30;0.30;;;12.90;99.90;;;;;;4897919;29;20116;-81
2022/12/30 16:44:16;;;;;;;1.45;1.08;;;12.90;99.90;;;;;;4888151;29;20055;-82
2022/12/30 16:46:42;;;;;;;;;;;12.90;99.90;;;;;;4885505;29;20072;-82
2022/12/30 16:49:09;;;;;;;1.48;0.47;;;12.90;99.90;;;;;;4883535;29;20339;-82
2022/12/30 16:51:43;;;;;;;0.63;0.55;;;12.90;99.90;;;;;;4883246;29;20093;-82
2022/12/30 16:54:13;;;;;;;1.50;0.63;;;12.90;99.90;;;;;;4889249;29;20061;-82
2022/12/30 16:56:40;;;;;;;0.73;0.70;;;12.90;99.90;;;;;;4882583;29;20570;-81
2022/12/30 16:59:09;;;;;;;1.02;0.73;;;13.00;99.90;;;;;;4885122;29;20511;-83
2022/12/30 17:01:49;;;;;;;2.80;1.63;;;13.00;99.90;;;;;;4880333;29;20061;-83
2022/12/30 17:04:20;;;;;;;1.83;1.00;;;13.00;99.90;;;;;;4893617;29;20068;-82
2022/12/30 17:06:47;;;;;;;;;;;13.00;99.90;;;;;;4912309;29;20060;-82
2022/12/30 17:10:52;;;;;;;1.65;1.08;;;13.10;99.90;;;;;;4911276;29;19948;-82
2022/12/30 17:12:05;;;;;;;1.65;1.00;;;13.00;99.90;;;;;;4895515;29;20053;-82
2022/12/30 17:14:32;;;;;;;1.85;0.90;;;13.00;99.90;;;;;;4911748;29;20067;-80
2022/12/30 17:16:59;;;;;;;9.27;7.85;;;13.00;99.90;;;;;;4912382;29;20057;-82
2022/12/30 17:19:27;;;;;;;1.42;1.05;;;13.00;99.90;;;;;;4896548;29;20059;-82
2022/12/30 17:21:53;;;;;;;2.00;1.02;;;13.00;99.90;;;;;;4897394;29;20064;-82
2022/12/30 17:24:21;;;;;;;1.15;0.90;;;13.00;99.90;;;;;;4897019;29;20515;-82
2022/12/30 17:26:48;;;;;;;0.98;0.65;;;12.90;99.90;;;;;;4885386;29;20115;-82
2022/12/30 17:29:16;;;;;;;2.40;1.10;;;12.90;99.90;;;;;;4880884;29;20064;-83
2022/12/30 17:31:45;;;;;;;1.80;1.15;;;12.90;99.90;;;;;;4897505;29;20074;-81
2022/12/30 17:34:13;;;;;;;2.45;0.90;;;12.90;99.90;;;;;;4883385;29;20055;-82
2022/12/30 17:36:39;;;;;;;2.13;0.60;;;12.80;99.90;;;;;;4883504;29;20056;-82
2022/12/30 17:39:07;;;;;;;0.95;0.73;;;12.80;99.90;;;;;;4883954;29;20616;-82
2022/12/30 17:41:34;;;;;;;1.52;0.80;;;12.80;99.90;;;;;;4883219;29;20049;-81
2022/12/30 17:44:02;;;;;;;0.80;0.80;;;12.80;99.90;;;;;;4894935;29;20057;-82
2022/12/30 17:46:29;;;;;;;2.47;2.03;;;12.70;99.90;;;;;;4881584;29;20506;-81
2022/12/30 17:48:57;;;;;;;4.05;3.03;;;12.70;99.90;;;;;;4894755;29;20097;-81
2022/12/30 17:51:25;;;;;;;2.45;1.40;;;12.90;99.90;;;;;;4883073;29;20086;-82
2022/12/30 17:53:53;;;;;;;1.38;0.73;;;12.70;99.90;;;;;;4882742;29;20099;-82
2022/12/30 17:56:23;;;;;;;0.82;0.70;;;12.70;99.90;;;;;;4882552;29;20120;-82
2022/12/30 17:58:50;;;;;;;0.80;0.40;;;12.60;99.90;;;;;;4883468;29;20045;-81
2022/12/30 18:01:26;;;;;;;1.83;1.10;;;12.60;99.90;;;;;;4882695;29;20049;-81
2022/12/30 18:03:53;;;;;;;2.10;0.80;;;12.60;99.90;;;;;;4882746;29;20116;-80
2022/12/30 18:06:20;;;;;;;1.83;0.80;;;12.60;99.90;;;;;;4883398;29;20045;-82
2022/12/30 18:08:47;;;;;;;0.93;0.70;;;12.60;99.90;;;;;;4882444;29;20049;-82
2022/12/30 18:11:15;;;;;;;1.02;0.60;;;12.70;99.90;;;;;;4882999;29;20087;-81
2022/12/30 18:13:42;;;;;;;2.63;0.63;;;12.70;99.90;;;;;;4882827;29;20088;-82
2022/12/30 18:16:12;;;;;;;0.45;0.40;;;12.70;99.90;;;;;;4883319;29;20053;-81
2022/12/30 18:18:40;;;;;;;0.80;0.57;;;12.70;99.90;;;;;;4880814;29;20049;-81
2022/12/30 18:21:09;;;;;;;0.80;0.80;;;12.60;99.90;;;;;;4882588;29;20045;-81
2022/12/30 18:23:36;;;;;;;1.10;0.70;;;12.70;99.90;;;;;;4879072;29;20132;-82
2022/12/30 18:26:07;;;;;;;0.93;0.60;;;12.70;99.90;;;;;;4897217;29;20085;-81
2022/12/30 18:28:34;;;;;;;0.95;0.75;;;12.70;99.90;;;;;;4877642;29;20507;-82
2022/12/30 18:31:17;;;;;;;1.35;0.90;;;12.70;99.90;;;;;;4882159;29;20412;-82
2022/12/30 18:33:44;;;;;;;1.38;0.52;;;12.70;99.90;;;;;;4878546;29;20100;-80
2022/12/30 18:36:13;;;;;;;0.95;0.43;;;12.80;99.90;;;;;;4882399;29;20136;-81
2022/12/30 18:38:41;;;;;;;1.23;0.67;;;12.80;99.90;;;;;;4882236;29;20088;-83
2022/12/30 18:41:13;;;;;;;0.73;0.45;;;12.80;99.90;;;;;;4881472;29;20419;-80
2022/12/30 18:43:41;;;;;;;1.50;0.45;;;12.80;99.90;;;;;;4882430;29;20080;-82
2022/12/30 18:46:11;;;;;;;0.52;0.50;;;12.80;99.90;;;;;;4881922;29;20077;-83
2022/12/30 18:48:38;;;;;;;4.22;0.93;;;12.80;99.90;;;;;;4881531;29;20396;-83
2022/12/30 18:51:06;;;;;;;1.98;0.85;;;12.80;99.90;;;;;;4881431;29;20080;-81
2022/12/30 18:53:32;;;;;;;1.17;0.95;;;12.80;99.90;;;;;;4882046;29;20080;-80
2022/12/30 18:56:01;;;;;;;0.60;0.60;;;12.80;99.90;;;;;;4882084;29;20053;-81
2022/12/30 18:58:28;;;;;;;1.17;0.55;;;12.80;99.90;;;;;;4896483;29;20239;-80
2022/12/30 19:00:55;;;;;;;1.75;0.50;;;12.80;99.90;;;;;;4880825;29;20057;-80
2022/12/30 19:03:22;;;;;;;1.10;0.60;;;12.80;99.90;;;;;;4887408;29;20049;-80
2022/12/30 19:05:49;;;;;;;0.88;0.80;;;12.90;99.90;;;;;;4897237;29;20141;-81
2022/12/30 19:08:16;;;;;;;1.27;0.95;;;12.90;99.90;;;;;;4895965;29;20049;-81
2022/12/30 19:10:44;;;;;;;0.40;0.40;;;12.90;99.90;;;;;;4880585;29;20056;-84
2022/12/30 19:13:11;;;;;;;3.40;0.73;;;12.90;99.90;;;;;;4881704;29;20049;-84
2022/12/30 19:15:38;;;;;;;1.83;0.57;;;12.90;99.90;;;;;;4880846;29;20052;-83
2022/12/30 19:18:05;;;;;;;1.13;0.70;;;12.90;99.90;;;;;;4881153;29;20088;-83
2022/12/30 19:20:34;;;;;;;0.47;0.47;;;12.90;99.90;;;;;;4881386;29;20471;-83
2022/12/30 19:23:01;;;;;;;1.13;0.50;;;12.90;99.90;;;;;;4879274;29;20060;-82
2022/12/30 19:25:27;;;;;;;2.83;1.60;;;12.90;99.90;;;;;;4881274;29;20056;-83
2022/12/30 19:27:54;;;;;;;0.40;0.38;;;13.00;99.90;;;;;;4879635;29;20554;-82
2022/12/30 19:30:21;;;;;;;0.60;0.40;;;13.10;99.90;;;;;;4881609;29;20057;-80
2022/12/30 19:32:47;;;;;;;0.73;0.73;;;13.10;99.90;;;;;;4895736;29;20057;-81
2022/12/30 19:35:14;;;;;;;0.60;0.60;;;13.10;99.90;;;;;;4880805;29;20064;-81
2022/12/30 19:37:41;;;;;;;0.30;0.30;;;13.10;99.90;;;;;;4881590;29;20052;-81
2022/12/30 19:40:08;;;;;;;0.57;0.50;;;13.10;99.90;;;;;;4878090;29;20060;-81
2022/12/30 19:42:35;;;;;;;0.68;0.60;;;13.10;99.90;;;;;;4879156;29;20052;-82
2022/12/30 19:45:01;;;;;;;0.45;0.45;;;13.10;99.90;;;;;;4879688;29;20045;-83
2022/12/30 19:47:31;;;;;;;0.82;0.55;;;13.10;99.90;;;;;;4880273;29;20060;-82
2022/12/30 19:49:58;;;;;;;0.60;0.60;;;13.10;99.90;;;;;;4880068;29;20060;-82
2022/12/30 19:52:30;;;;;;;0.63;0.60;;;13.10;99.90;;;;;;4878868;29;20128;-82
2022/12/30 19:54:57;;;;;;;0.50;0.50;;;13.10;99.90;;;;;;4880560;29;20053;-81
2022/12/30 19:57:24;;;;;;;0.43;0.40;;;13.20;99.90;;;;;;4880314;29;20053;-81
2022/12/30 19:59:50;;;;;;;1.25;0.50;;;13.10;99.90;;;;;;4880522;29;20420;-81
2022/12/30 20:02:17;;;;;;;0.50;0.50;;;13.10;99.90;;;;;;4880243;29;20046;-81
2022/12/30 20:04:45;;;;;;;0.30;0.30;;;13.20;99.90;;;;;;4880891;29;20148;-82
2022/12/30 20:07:12;;;;;;;2.13;0.65;;;13.20;99.90;;;;;;4880915;29;20162;-82
2022/12/30 20:09:47;;;;;;;0.50;0.50;;;13.20;99.90;;;;;;4879990;29;20059;-81
2022/12/30 20:12:34;;;;;;;0.93;0.70;;;13.20;99.90;;;;;;4879869;29;20574;-81
2022/12/30 20:15:03;;;;;;;1.05;0.93;;;13.20;99.90;;;;;;4883767;29;20415;-81
2022/12/30 20:17:32;;;;;;;1.17;0.90;;;13.20;99.90;;;;;;4896310;29;20128;-81
2022/12/30 20:19:59;;;;;;;1.52;0.90;;;13.30;99.90;;;;;;4883270;29;20049;-83
2022/12/30 20:22:26;;;;;;;0.55;0.43;;;13.20;99.90;;;;;;4897416;29;20045;-83
2022/12/30 20:24:53;;;;;;;0.82;0.50;;;13.30;99.90;;;;;;4882856;29;20053;-83
2022/12/30 20:27:20;;;;;;;0.77;0.70;;;13.30;99.90;;;;;;4882965;29;20057;-84
2022/12/30 20:29:51;;;;;;;1.00;0.60;;;13.30;99.90;;;;;;4883825;29;20364;-82
2022/12/30 20:32:18;;;;;;;0.60;0.60;;;13.30;99.90;;;;;;4883501;29;20088;-80
2022/12/30 20:34:44;;;;;;;1.33;0.80;;;13.30;99.90;;;;;;4884128;29;20071;-79
2022/12/30 20:37:11;;;;;;;0.80;0.80;;;13.30;99.90;;;;;;4889120;29;20591;-82
2022/12/30 20:39:38;;;;;;;1.38;1.27;;;13.40;99.90;;;;;;4885182;29;20061;-82
2022/12/30 20:42:05;;;;;;;0.50;0.50;;;13.40;99.90;;;;;;4884539;29;20055;-82
2022/12/30 20:44:34;;;;;;;0.90;0.77;;;13.40;99.90;;;;;;4894223;29;20052;-82
2022/12/30 20:47:03;;;;;;;1.00;0.90;;;13.50;99.90;;;;;;4862525;29;1062260;-82
2022/12/30 20:49:30;;;;;;;1.70;1.00;;;13.50;99.90;;;;;;4882091;29;20080;-80
2022/12/30 20:51:58;;;;;;;0.90;0.70;;;13.60;99.90;;;;;;4884537;29;20148;-81
2022/12/30 20:54:24;;;;;;;1.27;0.70;;;13.60;99.90;;;;;;4883782;29;20053;-82
2022/12/30 20:56:51;;;;;;;0.68;0.68;;;13.60;99.90;;;;;;4884541;29;20053;-81
2022/12/30 20:59:18;;;;;;;1.65;0.70;;;13.60;99.90;;;;;;4885268;29;20088;-82
2022/12/30 21:01:48;;;;;;;0.50;0.40;;;13.60;99.90;;;;;;4898852;29;20053;-82
2022/12/30 21:04:15;;;;;;;1.58;0.60;;;13.70;99.90;;;;;;4883767;29;20057;-82
2022/12/30 21:06:43;;;;;;;1.30;0.45;;;13.70;99.90;;;;;;4884026;29;20089;-82
2022/12/30 21:09:16;;;;;;;0.50;0.43;;;13.70;99.90;;;;;;4883638;29;20136;-82
2022/12/30 21:11:43;;;;;;;0.55;0.32;;;13.70;99.90;;;;;;4898206;29;20079;-82
2022/12/30 21:14:13;;;;;;;0.50;0.50;;;13.70;99.90;;;;;;4883300;29;20136;-82